createdAt,value
2022-08-03T00:03:41.470Z,17.98
2022-08-03T00:08:44.993Z,17.85
2022-08-03T00:13:48.431Z,17.77
2022-08-03T00:18:53.466Z,17.81
2022-08-03T00:23:56.911Z,17.75
2022-08-03T00:28:59.912Z,17.77
2022-08-03T00:34:04.774Z,17.72
2022-08-03T00:39:09.554Z,17.60
2022-08-03T00:44:12.497Z,17.58
2022-08-03T00:49:17.109Z,17.55
2022-08-03T00:54:20.861Z,17.62
2022-08-03T00:59:23.791Z,17.64
2022-08-03T01:04:28.387Z,17.51
2022-08-03T01:09:41.214Z,17.52
2022-08-03T01:14:50.552Z,17.46
2022-08-03T01:20:01.838Z,17.41
2022-08-03T01:25:11.179Z,17.36
2022-08-03T01:30:16.159Z,17.35
2022-08-03T01:35:28.450Z,17.24
2022-08-03T01:40:34.066Z,17.22
2022-08-03T01:45:40.029Z,17.21
2022-08-03T01:50:43.885Z,17.19
2022-08-03T01:55:49.007Z,17.04
2022-08-03T02:00:59.648Z,17.08
2022-08-03T02:07:00.646Z,17.08
2022-08-03T02:11:26.583Z,17.03
2022-08-03T02:16:33.797Z,16.95
2022-08-03T02:21:55.836Z,16.87
2022-08-03T02:27:05.656Z,16.70
2022-08-03T02:32:14.839Z,16.65
2022-08-03T02:37:19.791Z,16.65
2022-08-03T02:42:25.096Z,16.59
2022-08-03T02:47:54.058Z,16.52
2022-08-03T02:52:56.459Z,16.58
2022-08-03T02:58:01.653Z,16.60
2022-08-03T03:03:06.854Z,16.55
2022-08-03T03:08:17.807Z,16.48
2022-08-03T03:13:23.465Z,16.49
2022-08-03T03:18:28.975Z,16.47
2022-08-03T03:23:35.738Z,16.46
2022-08-03T03:28:38.791Z,16.55
2022-08-03T03:33:43.795Z,16.69
2022-08-03T03:38:46.947Z,16.76
2022-08-03T03:43:50.856Z,16.81
2022-08-03T03:48:56.319Z,16.98
2022-08-03T03:54:00.312Z,17.10
2022-08-03T03:59:03.834Z,17.22
2022-08-03T04:04:26.606Z,17.28
2022-08-03T04:09:49.041Z,17.47
2022-08-03T04:14:54.512Z,17.74
2022-08-03T04:20:02.244Z,17.97
2022-08-03T04:25:10.787Z,18.25
2022-08-03T04:30:15.573Z,18.51
2022-08-03T04:35:21.192Z,18.79
2022-08-03T04:40:46.708Z,19.11
2022-08-03T04:45:51.548Z,19.29
2022-08-03T04:50:56.343Z,19.54
2022-08-03T04:56:05.069Z,19.65
2022-08-03T05:01:08.155Z,19.79
2022-08-03T05:06:12.761Z,19.99
2022-08-03T05:11:19.813Z,19.89
2022-08-03T05:16:23.033Z,20.15
2022-08-03T05:21:52.619Z,20.28
2022-08-03T05:26:50.842Z,20.31
2022-08-03T05:31:53.923Z,20.42
2022-08-03T05:36:58.410Z,20.45
2022-08-03T05:42:01.759Z,20.51
2022-08-03T05:47:04.873Z,20.53
2022-08-03T05:52:11.702Z,20.64
2022-08-03T05:57:19.301Z,20.72
2022-08-03T06:02:24.599Z,20.88
2022-08-03T06:07:29.423Z,20.96
2022-08-03T06:12:33.245Z,21.10
2022-08-03T06:17:45.605Z,21.14
2022-08-03T06:23:00.519Z,21.38
2022-08-03T06:28:05.535Z,21.54
2022-08-03T06:33:08.738Z,21.73
2022-08-03T06:38:13.393Z,22.01
2022-08-03T06:43:16.654Z,21.88
2022-08-03T06:48:19.735Z,22.23
2022-08-03T06:53:24.227Z,22.60
2022-08-03T06:58:27.800Z,23.11
2022-08-03T07:03:31.026Z,23.30
2022-08-03T07:08:36.490Z,23.57
2022-08-03T07:13:41.773Z,23.99
2022-08-03T07:18:45.080Z,24.40
2022-08-03T07:23:49.630Z,24.50
2022-08-03T07:28:52.787Z,24.47
2022-08-03T07:33:55.945Z,24.38
2022-08-03T07:39:00.947Z,24.29
2022-08-03T07:44:19.285Z,24.19
2022-08-03T07:49:22.611Z,24.30
2022-08-03T07:54:28.007Z,24.78
2022-08-03T07:59:56.990Z,24.84
2022-08-03T08:04:55.033Z,25.15
2022-08-03T08:09:59.816Z,25.06
2022-08-03T08:15:03.295Z,25.43
2022-08-03T08:20:07.239Z,25.56
2022-08-03T08:25:13.640Z,25.63
2022-08-03T08:30:19.665Z,26.10
2022-08-03T08:35:22.659Z,26.46
2022-08-03T08:40:28.505Z,26.67
2022-08-03T08:45:32.621Z,26.99
2022-08-03T08:50:37.776Z,27.11
2022-08-03T08:55:58.367Z,27.13
2022-08-03T09:01:03.432Z,27.26
2022-08-03T09:06:07.169Z,27.26
2022-08-03T09:11:12.477Z,27.21
2022-08-03T09:16:17.571Z,26.78
2022-08-03T09:21:34.485Z,26.40
2022-08-03T09:26:49.773Z,26.37
2022-08-03T09:32:01.759Z,26.34
2022-08-03T09:37:15.155Z,26.96
2022-08-03T09:42:23.802Z,26.93
2022-08-03T09:47:32.159Z,27.53
2022-08-03T09:52:49.752Z,27.54
2022-08-03T09:58:06.259Z,27.82
2022-08-03T10:03:09.213Z,27.69
2022-08-03T10:08:15.966Z,27.83
2022-08-03T10:13:21.347Z,28.00
2022-08-03T10:18:24.884Z,27.64
2022-08-03T10:29:01.624Z,28.14
2022-08-03T10:34:07.156Z,27.71
2022-08-03T10:39:16.091Z,28.21
2022-08-03T10:44:26.556Z,27.70
2022-08-03T10:49:34.788Z,26.91
2022-08-03T10:55:03.225Z,26.56
2022-08-03T11:00:13.524Z,26.22
2022-08-03T11:05:28.602Z,26.20
2022-08-03T11:10:32.462Z,26.17
2022-08-03T11:15:38.238Z,26.31
2022-08-03T11:20:48.428Z,26.39
2022-08-03T11:26:14.652Z,26.33
2022-08-03T11:31:50.211Z,26.77
2022-08-03T11:37:23.157Z,26.73
2022-08-03T11:42:45.442Z,26.84
2022-08-03T11:47:53.712Z,26.90
2022-08-03T11:52:57.238Z,27.28
2022-08-03T11:59:01.582Z,27.53
2022-08-03T12:03:25.314Z,27.20
2022-08-03T12:08:33.002Z,26.73
2022-08-03T12:14:44.927Z,26.78
2022-08-03T12:19:09.644Z,26.65
2022-08-03T12:24:12.695Z,26.84
2022-08-03T12:29:18.743Z,27.31
2022-08-03T12:34:23.400Z,27.25
2022-08-03T12:39:30.930Z,27.14
2022-08-03T12:44:35.300Z,27.20
2022-08-03T12:49:47.708Z,27.26
2022-08-03T12:54:57.922Z,27.37
2022-08-03T13:00:21.742Z,27.54
2022-08-03T13:05:44.281Z,27.29
2022-08-03T13:10:48.042Z,27.37
2022-08-03T13:15:52.502Z,27.44
2022-08-03T13:20:57.073Z,27.54
2022-08-03T13:26:00.204Z,27.69
2022-08-03T13:31:03.652Z,27.80
2022-08-03T13:36:08.739Z,27.79
2022-08-03T13:41:15.469Z,27.73
2022-08-03T13:46:20.798Z,27.90
2022-08-03T13:51:25.270Z,27.93
2022-08-03T13:56:28.619Z,27.98
2022-08-03T14:01:54.243Z,27.80
2022-08-03T14:06:56.139Z,28.09
2022-08-03T14:12:07.023Z,28.14
2022-08-03T14:17:12.032Z,28.21
2022-08-03T14:22:16.691Z,28.17
2022-08-03T14:27:19.905Z,28.12
2022-08-03T14:32:23.069Z,28.02
2022-08-03T14:37:27.731Z,28.06
2022-08-03T14:42:31.079Z,27.99
2022-08-03T14:47:34.079Z,27.98
2022-08-03T14:52:58.957Z,28.11
2022-08-03T14:58:19.545Z,27.98
2022-08-03T15:03:25.310Z,28.23
2022-08-03T15:08:30.341Z,28.23
2022-08-03T15:13:33.365Z,28.29
2022-08-03T15:18:36.369Z,28.30
2022-08-03T15:23:41.238Z,28.06
2022-08-03T15:28:44.288Z,28.12
2022-08-03T15:33:47.744Z,28.12
2022-08-03T15:38:52.685Z,27.91
2022-08-03T15:43:56.303Z,28.19
2022-08-03T15:48:59.738Z,28.19
2022-08-03T15:54:04.641Z,28.25
2022-08-03T15:59:12.710Z,28.11
2022-08-03T16:04:16.563Z,28.08
2022-08-03T16:09:24.090Z,28.12
2022-08-03T16:14:53.473Z,28.08
2022-08-03T16:19:56.977Z,27.98
2022-08-03T16:25:02.192Z,27.99
2022-08-03T16:30:06.717Z,27.71
2022-08-03T16:35:19.639Z,27.65
2022-08-03T16:40:26.802Z,28.15
2022-08-03T16:45:29.837Z,28.93
2022-08-03T16:50:32.967Z,29.60
2022-08-03T16:55:52.127Z,29.78
2022-08-03T17:00:57.774Z,29.22
2022-08-03T17:06:03.502Z,28.63
2022-08-03T17:11:09.278Z,28.12
2022-08-03T17:16:15.280Z,27.69
2022-08-03T17:21:26.026Z,27.40
2022-08-03T17:26:37.212Z,27.11
2022-08-03T17:31:48.931Z,26.79
2022-08-03T17:37:50.088Z,26.60
2022-08-03T17:42:31.239Z,26.42
2022-08-03T17:47:41.848Z,26.13
2022-08-03T17:58:20.958Z,25.63
2022-08-03T18:03:57.847Z,25.40
2022-08-03T18:09:00.080Z,25.10
2022-08-03T18:14:31.283Z,24.83
2022-08-03T18:20:02.372Z,24.54
2022-08-03T18:25:00.634Z,24.26
2022-08-03T18:30:13.514Z,24.06
2022-08-03T18:35:20.427Z,23.84
2022-08-03T18:40:28.362Z,23.64
2022-08-03T18:45:56.008Z,23.41
2022-08-03T18:51:06.971Z,23.26
2022-08-03T18:56:23.707Z,23.08
2022-08-03T19:02:00.208Z,22.92
2022-08-03T19:07:03.921Z,22.80
2022-08-03T19:12:26.538Z,22.62
2022-08-03T19:17:36.241Z,22.49
2022-08-03T19:22:45.896Z,22.41
2022-08-03T19:27:49.433Z,22.39
2022-08-03T19:32:54.682Z,22.29
2022-08-03T19:37:59.619Z,22.18
2022-08-03T19:43:10.028Z,22.19
2022-08-03T19:48:17.772Z,22.02
2022-08-03T19:53:35.422Z,21.83
2022-08-03T19:58:41.148Z,21.72
2022-08-03T20:03:47.096Z,21.70
2022-08-03T20:08:52.098Z,21.77
2022-08-03T20:13:56.890Z,21.81
2022-08-03T20:19:02.316Z,21.85
2022-08-03T20:24:24.624Z,21.92
2022-08-03T20:30:05.330Z,22.04
2022-08-03T20:34:58.568Z,22.14
2022-08-03T20:40:01.602Z,22.12
2022-08-03T20:45:14.038Z,22.14
2022-08-03T20:50:31.668Z,22.07
2022-08-03T20:55:48.209Z,22.02
2022-08-03T21:01:00.587Z,22.04
2022-08-03T21:06:07.411Z,22.02
2022-08-03T21:11:16.613Z,21.98
2022-08-03T21:13:03.970Z,25.92
2022-08-03T21:16:21.858Z,21.96
2022-08-03T21:21:31.445Z,21.92
2022-08-03T21:26:38.205Z,21.83
2022-08-03T21:31:41.555Z,21.76
2022-08-03T21:36:46.365Z,21.74
2022-08-03T21:41:49.473Z,21.70
2022-08-03T21:46:55.555Z,21.67
2022-08-03T21:52:03.200Z,21.64
2022-08-03T21:57:13.379Z,21.63
2022-08-03T22:02:24.245Z,21.53
2022-08-03T22:07:29.865Z,21.52
2022-08-03T22:12:33.457Z,21.48
2022-08-03T22:17:54.638Z,21.36
2022-08-03T22:23:04.736Z,21.34
2022-08-03T22:28:11.673Z,21.25
2022-08-03T22:33:15.739Z,21.19
2022-08-03T22:38:20.293Z,21.16
2022-08-03T22:43:24.494Z,21.17
2022-08-03T22:48:31.944Z,21.13
2022-08-03T22:53:39.344Z,21.09
2022-08-03T22:58:42.380Z,21.09
2022-08-03T23:04:01.150Z,20.92
2022-08-03T23:09:10.148Z,20.99
2022-08-03T23:14:15.404Z,20.95
2022-08-03T23:19:23.958Z,20.87
2022-08-03T23:24:30.607Z,20.85
2022-08-03T23:29:36.213Z,20.81
2022-08-03T23:34:58.764Z,20.77
2022-08-03T23:40:03.777Z,20.73
2022-08-03T23:45:08.113Z,20.68
2022-08-03T23:50:11.620Z,20.64
2022-08-03T23:55:33.981Z,20.60
